Time;durP1;ratioP1;P1;durP2;ratioP2;P2;SDS_P1;SDS_P2;PMS_P1;PMS_P2;Temp;Humidity;BMP_temperature;BMP_pressure;BME280_temperature;BME280_humidity;BME280_pressure;Samples;Min_cycle;Max_cycle;Signal;HPM_P1;HPM_P2
2022/11/08 00:01:33;;;;;;;12.73;3.03;;;12.10;99.90;;;;;;5117151;27;20413;-75
2022/11/08 00:04:09;;;;;;;13.23;3.10;;;12.20;99.90;;;;;;5106618;28;20400;-75
2022/11/08 00:14:49;;;;;;;11.77;2.58;;;12.30;99.90;;;;;;5127430;27;20557;-74
2022/11/08 00:17:16;;;;;;;17.17;2.97;;;12.20;99.90;;;;;;5125709;27;20455;-74
2022/11/08 00:19:42;;;;;;;13.60;2.58;;;12.30;99.90;;;;;;5124083;27;20407;-74
2022/11/08 00:22:09;;;;;;;12.38;2.55;;;12.30;99.90;;;;;;5128161;27;20414;-75
2022/11/08 00:24:35;;;;;;;13.52;2.80;;;12.30;99.90;;;;;;5115399;27;20404;-75
2022/11/08 00:27:06;;;;;;;10.07;2.60;;;12.30;99.90;;;;;;5106659;28;20450;-75
2022/11/08 00:29:35;;;;;;;17.63;3.53;;;12.30;99.90;;;;;;5125355;27;20791;-75
2022/11/08 00:32:03;;;;;;;16.70;2.80;;;12.30;99.90;;;;;;5089776;28;20440;-75
2022/11/08 00:34:29;;;;;;;12.00;3.03;;;12.30;99.90;;;;;;5094526;28;20409;-74
2022/11/08 00:36:54;;;;;;;14.43;2.83;;;12.30;99.90;;;;;;5111171;27;20774;-75
2022/11/08 00:39:20;;;;;;;12.70;2.80;;;12.30;99.90;;;;;;5115146;27;20894;-74
2022/11/08 00:41:45;;;;;;;14.13;3.30;;;12.40;99.90;;;;;;5118278;27;20409;-74
2022/11/08 00:44:11;;;;;;;10.30;2.60;;;12.40;99.90;;;;;;5092991;28;20882;-74
2022/11/08 00:46:37;;;;;;;12.90;2.55;;;12.40;99.90;;;;;;5095424;28;20491;-75
2022/11/08 00:49:04;;;;;;;11.63;2.35;;;12.40;99.90;;;;;;5106407;27;20483;-75
2022/11/08 00:51:30;;;;;;;13.07;2.83;;;12.40;99.90;;;;;;5128042;27;20784;-75
2022/11/08 00:53:55;;;;;;;13.35;2.92;;;12.40;99.90;;;;;;5127561;27;20398;-74
2022/11/08 00:56:21;;;;;;;10.73;2.53;;;12.40;99.90;;;;;;5127974;27;20485;-74
2022/11/08 00:58:46;;;;;;;11.87;2.63;;;12.40;99.90;;;;;;5123583;27;20408;-74
2022/11/08 01:01:15;;;;;;;12.93;2.50;;;12.40;99.90;;;;;;5092766;27;20459;-74
2022/11/08 01:03:41;;;;;;;11.25;2.83;;;12.40;99.90;;;;;;5124153;27;20411;-75
2022/11/08 01:06:09;;;;;;;12.45;2.40;;;12.40;99.90;;;;;;5100407;28;20413;-74
2022/11/08 01:08:34;;;;;;;13.00;2.73;;;12.40;99.90;;;;;;5122985;28;20439;-74
2022/11/08 01:11:04;;;;;;;13.07;2.58;;;12.40;99.90;;;;;;5125368;28;20768;-74
2022/11/08 01:13:30;;;;;;;12.63;2.60;;;12.40;99.90;;;;;;5109285;28;20909;-74
2022/11/08 01:15:56;;;;;;;11.25;2.78;;;12.40;99.90;;;;;;5118887;28;20397;-74
2022/11/08 01:18:22;;;;;;;11.55;2.67;;;12.40;99.90;;;;;;5129582;27;20398;-74
2022/11/08 01:20:48;;;;;;;9.30;2.63;;;12.40;99.90;;;;;;5132095;27;20429;-75
2022/11/08 01:23:15;;;;;;;9.10;2.20;;;12.40;99.90;;;;;;5131798;27;20394;-74
2022/11/08 01:25:43;;;;;;;11.23;2.63;;;12.30;99.90;;;;;;5132033;27;20911;-75
2022/11/08 01:28:10;;;;;;;13.15;2.83;;;12.40;99.90;;;;;;5107635;28;20794;-74
2022/11/08 01:30:40;;;;;;;13.55;2.88;;;12.40;99.90;;;;;;5129380;27;20430;-75
2022/11/08 01:33:07;;;;;;;13.23;2.75;;;12.30;99.90;;;;;;5131807;27;20477;-75
2022/11/08 01:35:34;;;;;;;9.80;2.10;;;12.40;99.90;;;;;;5118621;27;20613;-75
2022/11/08 01:38:00;;;;;;;11.98;2.85;;;12.30;99.90;;;;;;5109764;28;20412;-74
2022/11/08 01:40:27;;;;;;;11.43;2.60;;;12.30;99.90;;;;;;5111480;27;20746;-75
2022/11/08 01:42:53;;;;;;;11.98;2.47;;;12.30;99.90;;;;;;5096632;28;20418;-74
2022/11/08 01:45:56;;;;;;;12.32;2.42;;;12.30;99.90;;;;;;5113527;27;20421;-75
2022/11/08 01:48:24;;;;;;;11.27;2.38;;;12.20;99.90;;;;;;5093025;28;20432;-74
2022/11/08 01:50:51;;;;;;;8.85;2.38;;;12.20;99.90;;;;;;5130698;27;20454;-74
2022/11/08 01:53:17;;;;;;;12.27;2.50;;;12.10;99.90;;;;;;5112861;27;20459;-74
2022/11/08 01:55:44;;;;;;;12.98;2.30;;;12.10;99.90;;;;;;5094175;28;20488;-74
2022/11/08 01:58:17;;;;;;;17.13;2.92;;;12.10;99.90;;;;;;5106592;27;20406;-75
2022/11/08 02:00:43;;;;;;;10.02;2.67;;;12.00;99.90;;;;;;5118708;27;20538;-74
2022/11/08 02:03:15;;;;;;;13.50;2.25;;;12.00;99.90;;;;;;5125138;27;20446;-74
2022/11/08 02:05:40;;;;;;;12.48;2.28;;;12.00;99.90;;;;;;5112660;27;20402;-74
2022/11/08 02:08:18;;;;;;;11.80;2.50;;;12.10;99.90;;;;;;5116518;27;20790;-75
2022/11/08 02:10:48;;;;;;;11.35;2.42;;;12.00;99.90;;;;;;5121039;27;20483;-74
2022/11/08 02:13:18;;;;;;;8.70;2.28;;;12.10;99.90;;;;;;5130872;27;20402;-74
2022/11/08 02:15:44;;;;;;;13.57;2.30;;;12.10;99.90;;;;;;5109503;28;20472;-74
2022/11/08 02:18:11;;;;;;;14.45;2.33;;;12.10;99.90;;;;;;5128488;27;20918;-75
2022/11/08 02:20:52;;;;;;;10.50;2.17;;;12.10;99.90;;;;;;5131016;27;20821;-75
2022/11/08 02:23:31;;;;;;;12.25;2.35;;;12.20;99.90;;;;;;5109062;28;20488;-75
2022/11/08 02:25:56;;;;;;;9.93;2.47;;;12.10;99.90;;;;;;5125490;27;20406;-75
2022/11/08 02:28:22;;;;;;;11.83;2.20;;;12.10;99.90;;;;;;5097408;28;20435;-74
2022/11/08 02:30:48;;;;;;;12.85;2.38;;;12.20;99.90;;;;;;5124183;27;20788;-74
2022/11/08 02:33:22;;;;;;;9.80;2.00;;;12.10;99.90;;;;;;5099520;27;20507;-75
2022/11/08 02:35:54;;;;;;;10.20;2.45;;;12.20;99.90;;;;;;5111651;27;20782;-74
2022/11/08 02:38:22;;;;;;;11.73;2.58;;;12.10;99.90;;;;;;5126128;27;20395;-74
2022/11/08 02:40:50;;;;;;;12.52;2.70;;;12.10;99.90;;;;;;5110480;27;20902;-75
2022/11/08 02:43:15;;;;;;;13.63;2.83;;;12.10;99.90;;;;;;5109679;28;20400;-74
2022/11/08 02:45:41;;;;;;;9.38;2.30;;;12.00;99.90;;;;;;5111087;27;20780;-75
2022/11/08 02:48:07;;;;;;;10.43;2.10;;;12.00;99.90;;;;;;5121549;27;20416;-74
2022/11/08 02:50:33;;;;;;;11.20;2.80;;;11.90;99.90;;;;;;5115472;27;20886;-74
2022/11/08 02:52:59;;;;;;;12.43;2.33;;;11.90;99.90;;;;;;5121818;27;20475;-74
2022/11/08 02:55:24;;;;;;;10.75;2.08;;;11.80;99.90;;;;;;5128564;27;20406;-74
2022/11/08 02:57:50;;;;;;;10.33;2.90;;;11.70;99.90;;;;;;5108480;28;20404;-75
2022/11/08 03:00:16;;;;;;;13.32;2.67;;;11.70;99.90;;;;;;5124844;27;20403;-75
2022/11/08 03:02:41;;;;;;;11.67;2.30;;;11.70;99.90;;;;;;5117444;27;20410;-74
2022/11/08 03:05:07;;;;;;;9.75;2.38;;;11.60;99.90;;;;;;5115181;27;20398;-74
2022/11/08 03:07:33;;;;;;;9.73;2.40;;;11.60;99.90;;;;;;5131234;27;20403;-74
2022/11/08 03:09:58;;;;;;;10.13;2.33;;;11.60;99.90;;;;;;5105466;27;20777;-74
2022/11/08 03:12:24;;;;;;;8.73;1.87;;;11.60;99.90;;;;;;5121568;27;20401;-74
2022/11/08 03:14:49;;;;;;;12.38;2.50;;;11.60;99.90;;;;;;5124194;27;20396;-74
2022/11/08 03:17:15;;;;;;;13.73;2.90;;;11.50;99.90;;;;;;5114324;27;20399;-74
2022/11/08 03:19:41;;;;;;;11.95;2.55;;;11.50;99.90;;;;;;5117273;27;20960;-74
2022/11/08 03:22:06;;;;;;;10.03;2.77;;;11.50;99.90;;;;;;5130974;27;20484;-75
2022/11/08 03:24:32;;;;;;;11.18;2.38;;;11.50;99.90;;;;;;5130477;27;20410;-74
2022/11/08 03:26:58;;;;;;;8.73;2.38;;;11.40;99.90;;;;;;5130529;27;20395;-74
2022/11/08 03:29:24;;;;;;;11.63;2.43;;;11.40;99.90;;;;;;5130732;27;20426;-74
2022/11/08 03:31:50;;;;;;;12.87;2.50;;;11.40;99.90;;;;;;5130663;27;20761;-74
2022/11/08 03:34:15;;;;;;;11.10;2.38;;;11.40;99.90;;;;;;5117529;27;20392;-74
2022/11/08 03:36:41;;;;;;;10.80;2.60;;;11.40;99.90;;;;;;5109551;27;20401;-74
2022/11/08 03:39:07;;;;;;;11.45;2.38;;;11.40;99.90;;;;;;5108950;27;20450;-74
2022/11/08 03:41:32;;;;;;;7.07;2.20;;;11.30;99.90;;;;;;5091507;28;20410;-74
2022/11/08 03:43:58;;;;;;;10.68;2.30;;;11.30;99.90;;;;;;5123533;27;20494;-74
2022/11/08 03:46:24;;;;;;;10.00;2.60;;;11.30;99.90;;;;;;5125531;27;20924;-74
2022/11/08 03:48:49;;;;;;;12.80;2.35;;;11.30;99.90;;;;;;5105517;28;20464;-74
2022/11/08 03:51:15;;;;;;;11.53;2.57;;;11.30;99.90;;;;;;5099314;28;20837;-75
2022/11/08 03:53:40;;;;;;;13.18;2.63;;;11.20;99.90;;;;;;5124493;27;20405;-74
2022/11/08 03:56:06;;;;;;;11.20;2.53;;;11.20;99.90;;;;;;5108473;28;20409;-74
2022/11/08 03:58:32;;;;;;;12.75;2.30;;;11.20;99.90;;;;;;5111571;27;20450;-74
2022/11/08 04:01:02;;;;;;;13.73;2.75;;;11.20;99.90;;;;;;5129978;27;20756;-75
2022/11/08 04:03:28;;;;;;;11.27;2.53;;;11.20;99.90;;;;;;5104738;28;20404;-74
2022/11/08 04:05:54;;;;;;;10.70;2.70;;;11.20;99.90;;;;;;5074739;28;20431;-74
2022/11/08 04:08:20;;;;;;;13.98;2.67;;;11.20;99.90;;;;;;5105106;28;20994;-75
2022/11/08 04:10:46;;;;;;;9.47;2.17;;;11.20;99.90;;;;;;5091630;27;20396;-75
2022/11/08 04:15:57;;;;;;;7.80;2.30;;;11.20;99.90;;;;;;5129502;27;20900;-74
2022/11/08 04:21:18;;;;;;;10.48;2.65;;;11.20;99.90;;;;;;5128714;27;20405;-75
2022/11/08 04:23:46;;;;;;;9.48;2.60;;;11.20;99.90;;;;;;5129328;27;20452;-74
2022/11/08 04:26:11;;;;;;;9.18;2.22;;;11.20;99.90;;;;;;5128458;27;20398;-74
2022/11/08 04:28:39;;;;;;;10.50;2.65;;;11.20;99.90;;;;;;5107334;28;20424;-75
2022/11/08 04:31:07;;;;;;;12.93;2.63;;;11.20;99.90;;;;;;5098622;28;20913;-74
2022/11/08 04:33:33;;;;;;;12.55;2.30;;;11.20;99.90;;;;;;5107679;28;20847;-74
2022/11/08 04:36:05;;;;;;;9.85;2.40;;;11.20;99.90;;;;;;5119782;27;20493;-75
2022/11/08 04:38:31;;;;;;;10.77;2.58;;;11.10;99.90;;;;;;5107416;28;20420;-74
2022/11/08 04:40:59;;;;;;;9.13;2.40;;;11.10;99.90;;;;;;5117732;27;21039;-75
2022/11/08 04:43:25;;;;;;;10.55;2.38;;;11.10;99.90;;;;;;5107122;28;20745;-75
2022/11/08 04:45:51;;;;;;;9.43;2.40;;;11.00;99.90;;;;;;5124288;27;20482;-75
2022/11/08 04:48:16;;;;;;;9.07;2.50;;;11.00;99.90;;;;;;5107476;28;20433;-74
2022/11/08 04:50:42;;;;;;;9.55;2.30;;;11.00;99.90;;;;;;5122199;27;20411;-75
2022/11/08 04:53:07;;;;;;;11.27;2.47;;;11.00;99.90;;;;;;5104812;28;20432;-75
2022/11/08 04:55:33;;;;;;;10.85;2.30;;;10.90;99.90;;;;;;5100835;28;20411;-74
2022/11/08 04:57:59;;;;;;;10.97;2.20;;;11.00;99.90;;;;;;5119932;27;20402;-74
2022/11/08 05:00:25;;;;;;;11.27;2.50;;;10.90;99.90;;;;;;5118944;27;20438;-75
2022/11/08 05:02:50;;;;;;;8.52;2.00;;;10.90;99.90;;;;;;5104331;28;20404;-74
2022/11/08 05:05:16;;;;;;;8.83;2.63;;;10.90;99.90;;;;;;5118339;27;20755;-74
2022/11/08 05:07:42;;;;;;;9.15;2.58;;;10.90;99.90;;;;;;5128473;28;20825;-75
2022/11/08 05:10:07;;;;;;;13.40;2.90;;;10.90;99.90;;;;;;5128956;28;20473;-75
2022/11/08 05:12:33;;;;;;;9.55;2.40;;;10.90;99.90;;;;;;5114963;28;20411;-74
2022/11/08 05:14:59;;;;;;;9.43;2.37;;;10.90;99.90;;;;;;5117700;28;20436;-74
2022/11/08 05:17:24;;;;;;;11.63;2.60;;;11.00;99.90;;;;;;5122159;28;20446;-74
2022/11/08 05:25:18;;;;;;;10.25;2.58;;;11.10;99.90;;;;;;5128553;28;20421;-75
2022/11/08 05:27:44;;;;;;;6.67;2.00;;;11.20;99.90;;;;;;5128516;28;20832;-75
2022/11/08 05:30:10;;;;;;;7.47;2.27;;;11.20;99.90;;;;;;5108338;28;20451;-75
2022/11/08 05:32:35;;;;;;;7.18;2.05;;;11.20;99.90;;;;;;5098854;28;20432;-74
2022/11/08 05:35:01;;;;;;;10.20;2.33;;;11.10;99.90;;;;;;5115027;28;20437;-75
2022/11/08 05:37:27;;;;;;;8.82;2.20;;;11.10;99.90;;;;;;5128255;28;20406;-75
2022/11/08 05:39:53;;;;;;;11.48;2.33;;;11.10;99.90;;;;;;5080046;28;20408;-74
2022/11/08 05:42:18;;;;;;;10.43;2.60;;;11.00;99.90;;;;;;5121418;28;20486;-75
2022/11/08 05:44:44;;;;;;;9.52;2.55;;;11.00;99.90;;;;;;5109645;28;20406;-75
2022/11/08 05:47:10;;;;;;;8.40;2.30;;;10.90;99.90;;;;;;5128778;28;20483;-75
2022/11/08 05:49:35;;;;;;;11.68;2.83;;;10.90;99.90;;;;;;5118524;28;20428;-75
2022/11/08 05:52:01;;;;;;;10.00;3.10;;;10.90;99.90;;;;;;5082776;28;20414;-74
2022/11/08 05:54:26;;;;;;;8.23;2.53;;;10.80;99.90;;;;;;5128580;28;20451;-75
2022/11/08 05:56:52;;;;;;;9.47;2.93;;;10.80;99.90;;;;;;5128460;28;20836;-74
2022/11/08 05:59:18;;;;;;;11.38;2.78;;;10.80;99.90;;;;;;5109986;28;20413;-74
2022/11/08 06:01:43;;;;;;;8.57;2.57;;;10.70;99.90;;;;;;5128530;28;20907;-74
2022/11/08 06:04:09;;;;;;;7.63;2.72;;;10.70;99.90;;;;;;5116340;27;20415;-74
2022/11/08 06:06:34;;;;;;;9.03;2.70;;;10.70;99.90;;;;;;5132655;27;20432;-75
2022/11/08 06:09:00;;;;;;;9.15;2.47;;;10.70;99.90;;;;;;5132334;27;20433;-74
2022/11/08 06:11:26;;;;;;;8.63;2.80;;;10.60;99.90;;;;;;5101830;28;20416;-74
2022/11/08 06:13:53;;;;;;;9.82;2.88;;;10.60;99.90;;;;;;5095370;27;20487;-75
2022/11/08 06:16:21;;;;;;;9.87;2.70;;;10.60;99.90;;;;;;5131647;27;20406;-75
2022/11/08 06:18:47;;;;;;;9.20;2.65;;;10.60;99.90;;;;;;5122133;27;20402;-74
2022/11/08 06:21:15;;;;;;;8.93;2.53;;;10.60;99.90;;;;;;5132073;27;20394;-75
2022/11/08 06:23:41;;;;;;;8.87;2.70;;;10.60;99.90;;;;;;5132148;27;20439;-74
2022/11/08 06:26:07;;;;;;;8.57;2.83;;;10.60;99.90;;;;;;5131526;27;20414;-74
2022/11/08 06:28:34;;;;;;;8.57;2.90;;;10.60;99.90;;;;;;5128826;27;20422;-75
2022/11/08 06:31:01;;;;;;;8.43;2.50;;;10.60;99.90;;;;;;5120952;27;20406;-74
2022/11/08 06:33:27;;;;;;;10.43;2.72;;;10.60;99.90;;;;;;5128390;27;20408;-74
2022/11/08 06:35:53;;;;;;;8.80;3.30;;;10.60;99.90;;;;;;5115594;27;20930;-75
2022/11/08 06:38:19;;;;;;;9.52;3.10;;;10.60;99.90;;;;;;5128335;27;20407;-75
2022/11/08 06:40:44;;;;;;;8.30;2.70;;;10.60;99.90;;;;;;5131298;27;20413;-74
2022/11/08 06:43:13;;;;;;;9.23;2.70;;;10.60;99.90;;;;;;5131299;27;20406;-74
2022/11/08 06:45:40;;;;;;;8.88;3.03;;;10.60;99.90;;;;;;5113485;27;20480;-74
2022/11/08 06:48:07;;;;;;;10.07;2.70;;;10.70;99.90;;;;;;5127821;27;20460;-74
2022/11/08 06:50:33;;;;;;;9.85;2.80;;;10.60;99.90;;;;;;5122331;27;20430;-74
2022/11/08 06:53:01;;;;;;;7.65;3.28;;;10.70;99.90;;;;;;5111399;27;20426;-74
2022/11/08 06:55:28;;;;;;;7.93;3.13;;;10.60;99.90;;;;;;5125320;27;20428;-75
2022/11/08 06:57:54;;;;;;;11.30;3.00;;;10.70;99.90;;;;;;5121465;27;20420;-75
2022/11/08 07:00:20;;;;;;;8.98;2.83;;;10.60;99.90;;;;;;5119822;27;20451;-76
2022/11/08 07:03:00;;;;;;;11.35;3.67;;;10.70;99.90;;;;;;5107778;27;20428;-75
2022/11/08 07:05:27;;;;;;;8.87;2.93;;;10.70;99.90;;;;;;5082794;27;20415;-75
2022/11/08 07:07:53;;;;;;;12.00;3.47;;;10.70;99.90;;;;;;5124051;27;20503;-75
2022/11/08 07:10:21;;;;;;;10.07;2.92;;;10.70;99.90;;;;;;5105830;27;20808;-74
2022/11/08 07:12:47;;;;;;;10.23;3.17;;;10.80;99.90;;;;;;5120908;27;20403;-75
2022/11/08 07:15:14;;;;;;;10.65;3.03;;;10.80;99.90;;;;;;5108803;28;20407;-74
2022/11/08 07:17:39;;;;;;;10.52;3.20;;;10.80;99.90;;;;;;5130423;27;20409;-75
2022/11/08 07:20:07;;;;;;;9.55;3.00;;;10.90;99.90;;;;;;5123460;27;20831;-74
2022/11/08 07:22:34;;;;;;;11.02;2.78;;;10.90;99.90;;;;;;5111810;27;20446;-75
2022/11/08 07:24:59;;;;;;;9.00;2.92;;;10.90;99.90;;;;;;5109790;28;20426;-74
2022/11/08 07:27:26;;;;;;;10.45;2.55;;;10.90;99.90;;;;;;5128866;27;20407;-75
2022/11/08 07:29:52;;;;;;;7.23;2.57;;;10.90;99.90;;;;;;5112360;27;20437;-75
2022/11/08 07:32:18;;;;;;;7.18;2.70;;;10.90;99.90;;;;;;5128425;27;20580;-75
2022/11/08 07:34:43;;;;;;;7.27;2.20;;;10.90;99.90;;;;;;5122297;27;20401;-74
2022/11/08 07:37:09;;;;;;;8.45;2.60;;;11.00;99.90;;;;;;5123898;27;20407;-75
2022/11/08 07:39:34;;;;;;;7.80;2.50;;;11.00;99.90;;;;;;5105616;27;20489;-75
2022/11/08 07:42:00;;;;;;;6.43;2.45;;;11.00;99.90;;;;;;5107627;28;20443;-74
2022/11/08 07:44:25;;;;;;;8.27;2.17;;;11.00;99.90;;;;;;5100340;28;20450;-75
2022/11/08 07:46:51;;;;;;;7.07;1.95;;;11.00;99.90;;;;;;5107797;28;20412;-75
2022/11/08 07:49:17;;;;;;;9.43;2.47;;;11.10;99.90;;;;;;5111777;28;20432;-74
2022/11/08 07:51:42;;;;;;;8.30;2.55;;;11.10;99.90;;;;;;5107007;28;20404;-74
2022/11/08 07:54:08;;;;;;;8.00;1.80;;;11.10;99.90;;;;;;5105404;27;20407;-74
2022/11/08 07:56:34;;;;;;;7.38;2.08;;;11.20;99.90;;;;;;5111137;27;20467;-74
2022/11/08 07:58:59;;;;;;;7.20;2.00;;;11.20;99.90;;;;;;5129687;27;20399;-75
2022/11/08 08:01:25;;;;;;;6.10;1.80;;;11.20;99.90;;;;;;5096846;28;20415;-75
2022/11/08 08:03:50;;;;;;;5.83;1.80;;;11.30;99.90;;;;;;5125443;27;20767;-74
2022/11/08 08:06:16;;;;;;;7.90;2.28;;;11.40;99.90;;;;;;5094453;27;20956;-74
2022/11/08 08:08:41;;;;;;;5.60;1.57;;;11.40;99.90;;;;;;5099443;28;20476;-74
2022/11/08 08:11:08;;;;;;;6.07;1.60;;;11.40;99.90;;;;;;5115299;27;20408;-75
2022/11/08 08:13:34;;;;;;;5.32;1.50;;;11.50;99.90;;;;;;5129953;27;20472;-75
2022/11/08 08:16:00;;;;;;;4.97;1.50;;;11.50;99.90;;;;;;5113338;27;20419;-74
2022/11/08 08:18:27;;;;;;;7.90;1.77;;;11.60;99.90;;;;;;5112472;27;20478;-75
2022/11/08 08:20:53;;;;;;;7.25;1.63;;;11.70;99.90;;;;;;5125800;27;20408;-75
2022/11/08 08:23:18;;;;;;;5.10;1.27;;;11.70;99.90;;;;;;5111485;27;20407;-75
2022/11/08 08:25:44;;;;;;;5.28;1.33;;;11.80;99.90;;;;;;5129439;27;20807;-74
2022/11/08 08:28:10;;;;;;;5.20;1.40;;;11.80;99.90;;;;;;5107729;28;20515;-75
2022/11/08 08:30:35;;;;;;;4.47;1.40;;;11.90;99.90;;;;;;5128410;27;20401;-74
2022/11/08 08:33:10;;;;;;;5.38;1.10;;;11.90;99.90;;;;;;5109800;27;20404;-75
2022/11/08 08:35:37;;;;;;;5.65;1.60;;;12.00;99.90;;;;;;5120176;27;20506;-75
2022/11/08 08:38:03;;;;;;;6.50;1.50;;;12.00;99.90;;;;;;5128907;27;20509;-74
2022/11/08 08:40:29;;;;;;;5.53;1.20;;;12.00;99.90;;;;;;5090593;28;21194;-75
2022/11/08 08:42:58;;;;;;;4.75;1.40;;;12.10;99.90;;;;;;5122257;27;20440;-75
2022/11/08 08:45:24;;;;;;;4.80;1.50;;;12.10;99.90;;;;;;5117208;27;20927;-75
2022/11/08 08:47:51;;;;;;;4.22;1.40;;;12.10;99.90;;;;;;5117075;27;20422;-75
2022/11/08 08:50:17;;;;;;;6.57;1.48;;;12.10;99.90;;;;;;5103276;28;20443;-75
2022/11/08 08:52:43;;;;;;;4.37;1.30;;;12.20;99.90;;;;;;5108273;27;20435;-75
2022/11/08 08:55:08;;;;;;;4.30;1.45;;;12.20;99.90;;;;;;5129097;27;20394;-75
2022/11/08 08:57:34;;;;;;;5.22;1.20;;;12.30;99.90;;;;;;5106405;27;20488;-75
2022/11/08 08:59:59;;;;;;;4.87;1.20;;;12.40;99.90;;;;;;5129145;27;20406;-75
2022/11/08 09:02:25;;;;;;;4.33;1.40;;;12.40;99.90;;;;;;5124344;27;20898;-75
2022/11/08 09:04:51;;;;;;;5.55;1.30;;;12.40;99.90;;;;;;5104336;28;20479;-75
2022/11/08 09:07:16;;;;;;;3.47;0.90;;;12.50;99.90;;;;;;5120366;27;20794;-75
2022/11/08 09:09:42;;;;;;;5.03;1.27;;;12.50;99.90;;;;;;5121638;28;20959;-75
2022/11/08 09:12:07;;;;;;;6.07;1.47;;;12.40;99.90;;;;;;5126530;28;20405;-75
2022/11/08 09:14:33;;;;;;;4.45;1.13;;;12.50;99.90;;;;;;5124756;28;20495;-75
2022/11/08 09:16:59;;;;;;;5.83;1.30;;;12.50;99.90;;;;;;5123988;28;20405;-74
2022/11/08 09:19:24;;;;;;;5.28;1.33;;;12.50;99.90;;;;;;5107382;28;20408;-75
2022/11/08 09:21:50;;;;;;;3.23;1.10;;;12.50;99.90;;;;;;5122046;28;20399;-75
2022/11/08 09:24:16;;;;;;;7.03;1.23;;;12.50;99.90;;;;;;5084582;28;20412;-74
2022/11/08 09:26:41;;;;;;;4.13;1.40;;;12.60;99.90;;;;;;5099343;28;20411;-75
2022/11/08 09:29:07;;;;;;;3.53;1.03;;;12.60;99.90;;;;;;5107365;28;20432;-75
2022/11/08 09:31:33;;;;;;;3.95;1.42;;;12.60;99.90;;;;;;5110761;28;20762;-75
2022/11/08 09:33:58;;;;;;;4.30;1.17;;;12.70;99.90;;;;;;5129254;28;20390;-75
2022/11/08 09:36:24;;;;;;;5.35;1.30;;;12.70;99.90;;;;;;5119563;28;20517;-75
2022/11/08 09:38:50;;;;;;;5.23;1.10;;;12.80;99.90;;;;;;5111234;27;20890;-75
2022/11/08 09:41:23;;;;;;;5.57;1.27;;;12.80;99.90;;;;;;5132511;27;20547;-75
2022/11/08 09:44:03;;;;;;;5.93;1.55;;;12.80;99.90;;;;;;5114419;27;20891;-75
2022/11/08 09:46:47;;;;;;;5.80;1.50;;;12.90;99.90;;;;;;5127699;27;20894;-75
2022/11/08 09:49:46;;;;;;;6.18;1.10;;;13.00;99.90;;;;;;5123631;27;20430;-75
2022/11/08 09:52:20;;;;;;;5.17;1.30;;;13.10;99.90;;;;;;5089682;28;20880;-75
2022/11/08 09:54:47;;;;;;;4.25;1.40;;;13.20;99.90;;;;;;5109058;28;20404;-75
2022/11/08 09:57:29;;;;;;;4.73;1.40;;;13.30;99.90;;;;;;5132232;27;20401;-75
2022/11/08 10:00:05;;;;;;;6.68;1.30;;;13.40;99.90;;;;;;5122327;27;20396;-75
2022/11/08 10:02:33;;;;;;;8.02;1.42;;;13.50;99.90;;;;;;5109403;27;20407;-75
2022/11/08 10:05:11;;;;;;;6.10;1.60;;;13.60;99.90;;;;;;5118098;27;20515;-75
2022/11/08 10:07:59;;;;;;;3.85;1.08;;;13.80;99.90;;;;;;5113464;27;20826;-75
2022/11/08 10:10:46;;;;;;;4.28;1.27;;;13.90;99.90;;;;;;5132710;27;20399;-75
2022/11/08 10:13:14;;;;;;;3.22;1.25;;;14.20;99.90;;;;;;5122201;27;20912;-75
2022/11/08 10:15:55;;;;;;;6.88;1.42;;;14.50;99.90;;;;;;5119760;27;20417;-76
2022/11/08 10:18:30;;;;;;;5.20;1.23;;;14.90;99.90;;;;;;5102524;27;20414;-75
2022/11/08 10:21:02;;;;;;;3.53;0.90;;;15.30;99.90;;;;;;5127524;27;20407;-75
2022/11/08 10:23:39;;;;;;;3.50;0.90;;;15.50;99.90;;;;;;5126319;27;20403;-75
2022/11/08 10:26:13;;;;;;;3.15;0.95;;;15.50;99.90;;;;;;5122748;27;20411;-76
2022/11/08 10:28:59;;;;;;;4.25;0.93;;;15.50;99.90;;;;;;5111561;27;20894;-75
2022/11/08 10:31:29;;;;;;;2.65;0.73;;;15.30;99.90;;;;;;5108458;27;20417;-75
2022/11/08 10:33:57;;;;;;;3.63;0.88;;;15.10;99.90;;;;;;5108712;28;20830;-75
2022/11/08 10:36:44;;;;;;;4.57;1.08;;;15.00;99.90;;;;;;5109879;27;21103;-75
2022/11/08 10:39:20;;;;;;;5.25;1.00;;;14.90;99.90;;;;;;5107198;27;20457;-75
2022/11/08 10:42:03;;;;;;;3.13;1.00;;;14.70;99.90;;;;;;5122551;27;20780;-75
2022/11/08 10:44:29;;;;;;;3.85;0.80;;;14.60;99.90;;;;;;5128317;27;20818;-76
2022/11/08 10:46:54;;;;;;;4.77;1.00;;;14.50;99.90;;;;;;5127758;27;20402;-76
2022/11/08 10:49:23;;;;;;;4.18;0.90;;;14.40;99.90;;;;;;5127148;27;20426;-76
2022/11/08 10:51:55;;;;;;;2.43;1.03;;;14.30;99.90;;;;;;5121811;27;20449;-76
2022/11/08 10:54:48;;;;;;;3.92;1.00;;;14.30;99.90;;;;;;5110600;27;20400;-76
2022/11/08 10:57:38;;;;;;;2.90;1.00;;;14.30;99.90;;;;;;5131008;27;20772;-76
2022/11/08 11:00:22;;;;;;;3.63;1.00;;;14.30;99.90;;;;;;5119436;27;20410;-76
2022/11/08 11:03:01;;;;;;;3.70;1.10;;;14.30;99.90;;;;;;5110284;27;20451;-76
2022/11/08 11:05:40;;;;;;;4.32;1.38;;;14.30;99.90;;;;;;5111316;27;20567;-76
2022/11/08 11:08:08;;;;;;;6.72;1.52;;;14.30;99.90;;;;;;5126209;27;20776;-76
2022/11/08 11:10:37;;;;;;;4.43;0.90;;;14.20;99.90;;;;;;5110522;27;20400;-76
2022/11/08 11:13:13;;;;;;;4.70;1.20;;;14.20;99.90;;;;;;5108299;28;21184;-76
2022/11/08 11:16:02;;;;;;;5.50;0.93;;;14.20;99.90;;;;;;5130314;27;20832;-76
2022/11/08 11:18:49;;;;;;;3.72;1.23;;;14.10;99.90;;;;;;5105528;28;20435;-76
2022/11/08 11:21:21;;;;;;;3.57;0.93;;;14.10;99.90;;;;;;5122483;27;20471;-76
2022/11/08 11:23:50;;;;;;;5.32;1.15;;;14.10;99.90;;;;;;5124150;27;20483;-76
2022/11/08 11:26:27;;;;;;;4.50;1.20;;;14.10;99.90;;;;;;5129317;27;20414;-76
2022/11/08 11:29:06;;;;;;;3.70;1.10;;;14.10;99.90;;;;;;5125502;27;20435;-76
2022/11/08 11:31:44;;;;;;;3.35;1.20;;;14.00;99.90;;;;;;5121376;27;20457;-76
2022/11/08 11:34:16;;;;;;;4.40;1.10;;;14.00;99.90;;;;;;5123164;27;20502;-76
2022/11/08 11:36:55;;;;;;;3.95;0.95;;;14.00;99.90;;;;;;5121223;27;20486;-77
2022/11/08 11:39:45;;;;;;;2.83;1.17;;;14.00;99.90;;;;;;5108851;28;20459;-76
2022/11/08 11:42:46;;;;;;;3.85;1.00;;;14.10;99.90;;;;;;5122920;27;20427;-76
2022/11/08 11:45:35;;;;;;;4.15;1.20;;;14.10;99.90;;;;;;5110265;27;20426;-76
2022/11/08 11:48:08;;;;;;;4.53;1.00;;;14.20;99.90;;;;;;5116955;27;20424;-76
2022/11/08 11:50:36;;;;;;;3.88;1.20;;;14.20;99.90;;;;;;5103597;27;21010;-76
2022/11/08 11:53:21;;;;;;;4.63;1.17;;;14.30;99.90;;;;;;5126790;27;20855;-76
2022/11/08 11:56:07;;;;;;;4.13;1.30;;;14.40;99.90;;;;;;5126366;27;20454;-76
2022/11/08 11:58:54;;;;;;;3.55;1.00;;;14.50;99.90;;;;;;5123513;27;20417;-76
2022/11/08 12:01:38;;;;;;;5.05;1.10;;;14.60;99.90;;;;;;5105359;28;20408;-76
2022/11/08 12:04:15;;;;;;;4.07;1.08;;;14.60;99.90;;;;;;5124794;27;20429;-76
2022/11/08 12:07:19;;;;;;;5.45;1.08;;;14.70;99.90;;;;;;5124839;27;20407;-76
2022/11/08 12:09:58;;;;;;;4.70;1.17;;;14.70;99.90;;;;;;5110936;27;20433;-76
2022/11/08 12:12:49;;;;;;;5.22;1.00;;;14.70;99.90;;;;;;5103921;27;20429;-76
2022/11/08 12:15:36;;;;;;;3.33;0.93;;;14.70;99.90;;;;;;5087406;27;20406;-76
2022/11/08 12:18:18;;;;;;;2.35;1.10;;;14.80;99.90;;;;;;5117452;27;20418;-76
2022/11/08 12:20:59;;;;;;;5.70;1.30;;;14.70;99.90;;;;;;5127745;27;20452;-77
2022/11/08 12:23:37;;;;;;;5.28;1.10;;;14.70;99.90;;;;;;5124917;27;20786;-77
2022/11/08 12:26:03;;;;;;;3.40;1.13;;;14.80;99.90;;;;;;5129522;27;20515;-76
2022/11/08 12:28:34;;;;;;;5.83;1.30;;;14.80;99.90;;;;;;5107383;27;20410;-76
2022/11/08 12:31:22;;;;;;;4.68;1.10;;;14.90;99.90;;;;;;5091209;28;20428;-76
2022/11/08 12:34:11;;;;;;;3.10;0.90;;;15.00;99.90;;;;;;5127372;27;20453;-76
2022/11/08 12:36:49;;;;;;;3.72;1.10;;;15.00;99.90;;;;;;5127211;27;20521;-76
2022/11/08 12:39:45;;;;;;;4.43;1.00;;;15.20;99.90;;;;;;5127015;27;20512;-76
2022/11/08 12:42:42;;;;;;;4.43;0.93;;;15.20;99.90;;;;;;5129622;27;20467;-76
2022/11/08 12:45:14;;;;;;;2.85;1.00;;;15.20;99.90;;;;;;5122824;27;21566;-76
2022/11/08 12:48:18;;;;;;;3.97;1.10;;;15.20;99.90;;;;;;5124648;27;20420;-77
2022/11/08 12:50:56;;;;;;;3.58;0.90;;;15.20;99.90;;;;;;5011838;28;20777;-77
2022/11/08 12:54:00;;;;;;;4.53;0.90;;;15.20;99.90;;;;;;5029227;28;20548;-76
2022/11/08 12:56:40;;;;;;;3.35;1.00;;;15.20;99.90;;;;;;5085880;27;20806;-76
2022/11/08 12:59:27;;;;;;;4.38;1.15;;;15.20;99.90;;;;;;5103502;28;20927;-76
2022/11/08 13:01:54;;;;;;;3.63;0.90;;;15.30;99.90;;;;;;5127077;27;20391;-76
2022/11/08 13:04:34;;;;;;;4.45;0.82;;;15.30;99.90;;;;;;5107901;27;20797;-76
2022/11/08 13:07:13;;;;;;;3.38;1.02;;;15.30;99.90;;;;;;5122476;27;20408;-76
2022/11/08 13:09:54;;;;;;;2.70;0.80;;;15.30;99.90;;;;;;5127434;27;20456;-76
2022/11/08 13:12:47;;;;;;;3.88;0.90;;;15.40;99.90;;;;;;5120609;28;20414;-76
2022/11/08 13:15:20;;;;;;;4.15;0.90;;;15.40;99.90;;;;;;5083260;28;20422;-76
2022/11/08 13:18:08;;;;;;;4.72;1.00;;;15.50;99.90;;;;;;5123861;28;20541;-76